sensor_id;sensor_type;location;lat;lon;timestamp;temperature;humidity
52565;DHT22;38460;53.106;7.004;2023-09-19T00:02:03;15.50;99.90
52565;DHT22;38460;53.106;7.004;2023-09-19T00:04:32;15.50;99.90
52565;DHT22;38460;53.106;7.004;2023-09-19T00:06:59;15.40;99.90
52565;DHT22;38460;53.106;7.004;2023-09-19T00:09:24;15.40;99.90
52565;DHT22;38460;53.106;7.004;2023-09-19T00:11:53;15.40;99.90
52565;DHT22;38460;53.106;7.004;2023-09-19T00:14:19;15.40;99.90
52565;DHT22;38460;53.106;7.004;2023-09-19T00:16:45;15.30;99.90
52565;DHT22;38460;53.106;7.004;2023-09-19T00:19:12;15.30;99.90
52565;DHT22;38460;53.106;7.004;2023-09-19T00:21:38;15.30;99.90
52565;DHT22;38460;53.106;7.004;2023-09-19T00:24:06;15.30;99.90
52565;DHT22;38460;53.106;7.004;2023-09-19T00:26:32;15.20;99.90
52565;DHT22;38460;53.106;7.004;2023-09-19T00:29:00;15.20;99.90
52565;DHT22;38460;53.106;7.004;2023-09-19T00:31:34;15.10;99.90
52565;DHT22;38460;53.106;7.004;2023-09-19T00:33:59;15.10;99.90
52565;DHT22;38460;53.106;7.004;2023-09-19T00:36:35;15.00;99.90
52565;DHT22;38460;53.106;7.004;2023-09-19T00:39:04;15.10;99.90
52565;DHT22;38460;53.106;7.004;2023-09-19T00:41:34;15.00;99.90
52565;DHT22;38460;53.106;7.004;2023-09-19T00:44:02;15.00;99.90
52565;DHT22;38460;53.106;7.004;2023-09-19T00:46:30;14.90;99.90
52565;DHT22;38460;53.106;7.004;2023-09-19T00:48:56;14.90;99.90
52565;DHT22;38460;53.106;7.004;2023-09-19T00:51:23;14.90;99.90
52565;DHT22;38460;53.106;7.004;2023-09-19T00:53:52;14.90;99.90
52565;DHT22;38460;53.106;7.004;2023-09-19T00:56:28;14.90;99.90
52565;DHT22;38460;53.106;7.004;2023-09-19T00:58:55;14.80;99.90
52565;DHT22;38460;53.106;7.004;2023-09-19T01:01:22;14.80;99.90
52565;DHT22;38460;53.106;7.004;2023-09-19T01:03:48;14.80;99.90
52565;DHT22;38460;53.106;7.004;2023-09-19T01:06:15;14.70;99.90
52565;DHT22;38460;53.106;7.004;2023-09-19T01:08:41;14.70;99.90
52565;DHT22;38460;53.106;7.004;2023-09-19T01:11:28;14.60;99.90
52565;DHT22;38460;53.106;7.004;2023-09-19T01:17:03;14.60;99.90
52565;DHT22;38460;53.106;7.004;2023-09-19T01:22:26;14.50;99.90
52565;DHT22;38460;53.106;7.004;2023-09-19T01:28:27;14.40;99.90
52565;DHT22;38460;53.106;7.004;2023-09-19T01:30:59;14.40;99.90
52565;DHT22;38460;53.106;7.004;2023-09-19T01:33:31;14.40;99.90
52565;DHT22;38460;53.106;7.004;2023-09-19T01:36:16;14.30;99.90
52565;DHT22;38460;53.106;7.004;2023-09-19T01:38:42;14.30;99.90
52565;DHT22;38460;53.106;7.004;2023-09-19T01:41:11;14.30;99.90
52565;DHT22;38460;53.106;7.004;2023-09-19T01:43:42;14.20;99.90
52565;DHT22;38460;53.106;7.004;2023-09-19T01:46:33;14.20;99.90
52565;DHT22;38460;53.106;7.004;2023-09-19T01:54:27;14.20;99.90
52565;DHT22;38460;53.106;7.004;2023-09-19T01:57:28;14.10;99.90
52565;DHT22;38460;53.106;7.004;2023-09-19T02:00:05;14.10;99.90
52565;DHT22;38460;53.106;7.004;2023-09-19T02:02:37;14.10;99.90
52565;DHT22;38460;53.106;7.004;2023-09-19T02:05:04;14.10;99.90
52565;DHT22;38460;53.106;7.004;2023-09-19T02:07:30;14.00;99.90
52565;DHT22;38460;53.106;7.004;2023-09-19T02:09:59;14.00;99.90
52565;DHT22;38460;53.106;7.004;2023-09-19T02:12:32;14.00;99.90
52565;DHT22;38460;53.106;7.004;2023-09-19T02:15:01;14.00;99.90
52565;DHT22;38460;53.106;7.004;2023-09-19T02:17:27;14.00;99.90
52565;DHT22;38460;53.106;7.004;2023-09-19T02:19:55;13.90;99.90
52565;DHT22;38460;53.106;7.004;2023-09-19T02:22:22;13.90;99.90
52565;DHT22;38460;53.106;7.004;2023-09-19T02:24:50;13.90;99.90
52565;DHT22;38460;53.106;7.004;2023-09-19T02:27:17;13.90;99.90
52565;DHT22;38460;53.106;7.004;2023-09-19T02:29:45;13.90;99.90
52565;DHT22;38460;53.106;7.004;2023-09-19T02:32:11;13.90;99.90
52565;DHT22;38460;53.106;7.004;2023-09-19T02:34:37;13.80;99.90
52565;DHT22;38460;53.106;7.004;2023-09-19T02:37:05;13.80;99.90
52565;DHT22;38460;53.106;7.004;2023-09-19T02:39:31;13.80;99.90
52565;DHT22;38460;53.106;7.004;2023-09-19T02:41:57;13.80;99.90
52565;DHT22;38460;53.106;7.004;2023-09-19T02:44:23;13.70;99.90
52565;DHT22;38460;53.106;7.004;2023-09-19T02:46:49;13.70;99.90
52565;DHT22;38460;53.106;7.004;2023-09-19T02:49:16;13.60;99.90
52565;DHT22;38460;53.106;7.004;2023-09-19T02:51:43;13.70;99.90
52565;DHT22;38460;53.106;7.004;2023-09-19T02:54:09;13.70;99.90
52565;DHT22;38460;53.106;7.004;2023-09-19T02:56:36;13.70;99.90
52565;DHT22;38460;53.106;7.004;2023-09-19T02:59:02;13.60;99.90
52565;DHT22;38460;53.106;7.004;2023-09-19T03:01:28;13.60;99.90
52565;DHT22;38460;53.106;7.004;2023-09-19T03:03:54;13.60;99.90
52565;DHT22;38460;53.106;7.004;2023-09-19T03:06:21;13.60;99.90
52565;DHT22;38460;53.106;7.004;2023-09-19T03:08:47;13.60;99.90
52565;DHT22;38460;53.106;7.004;2023-09-19T03:11:15;13.50;99.90
52565;DHT22;38460;53.106;7.004;2023-09-19T03:13:44;13.60;99.90
52565;DHT22;38460;53.106;7.004;2023-09-19T03:16:10;13.50;99.90
52565;DHT22;38460;53.106;7.004;2023-09-19T03:18:36;13.50;99.90
52565;DHT22;38460;53.106;7.004;2023-09-19T03:21:02;13.50;99.90
52565;DHT22;38460;53.106;7.004;2023-09-19T03:23:28;13.50;99.90
52565;DHT22;38460;53.106;7.004;2023-09-19T03:25:55;13.50;99.90
52565;DHT22;38460;53.106;7.004;2023-09-19T03:28:22;13.50;99.90
52565;DHT22;38460;53.106;7.004;2023-09-19T03:31:04;13.40;99.90
52565;DHT22;38460;53.106;7.004;2023-09-19T03:33:30;13.40;99.90
52565;DHT22;38460;53.106;7.004;2023-09-19T03:36:00;13.40;99.90
52565;DHT22;38460;53.106;7.004;2023-09-19T03:38:27;13.40;99.90
52565;DHT22;38460;53.106;7.004;2023-09-19T03:40:54;13.40;99.90
52565;DHT22;38460;53.106;7.004;2023-09-19T03:43:20;13.40;99.90
52565;DHT22;38460;53.106;7.004;2023-09-19T03:45:45;13.40;99.90
52565;DHT22;38460;53.106;7.004;2023-09-19T03:48:12;13.40;99.90
52565;DHT22;38460;53.106;7.004;2023-09-19T03:50:38;13.40;99.90
52565;DHT22;38460;53.106;7.004;2023-09-19T03:53:05;13.40;99.90
52565;DHT22;38460;53.106;7.004;2023-09-19T03:55:33;13.40;99.90
52565;DHT22;38460;53.106;7.004;2023-09-19T03:58:01;13.40;99.90
52565;DHT22;38460;53.106;7.004;2023-09-19T04:00:27;13.40;99.90
52565;DHT22;38460;53.106;7.004;2023-09-19T04:02:54;13.40;99.90
52565;DHT22;38460;53.106;7.004;2023-09-19T04:05:22;13.40;99.90
52565;DHT22;38460;53.106;7.004;2023-09-19T04:07:48;13.40;99.90
52565;DHT22;38460;53.106;7.004;2023-09-19T04:10:14;13.40;99.90
52565;DHT22;38460;53.106;7.004;2023-09-19T04:12:40;13.40;99.90
52565;DHT22;38460;53.106;7.004;2023-09-19T04:15:07;13.40;99.90
52565;DHT22;38460;53.106;7.004;2023-09-19T04:17:33;13.40;99.90
52565;DHT22;38460;53.106;7.004;2023-09-19T04:19:59;13.40;99.90
52565;DHT22;38460;53.106;7.004;2023-09-19T04:22:25;13.40;99.90
52565;DHT22;38460;53.106;7.004;2023-09-19T04:24:51;13.40;99.90
52565;DHT22;38460;53.106;7.004;2023-09-19T04:27:17;13.40;99.90
52565;DHT22;38460;53.106;7.004;2023-09-19T04:29:44;13.40;99.90
52565;DHT22;38460;53.106;7.004;2023-09-19T04:32:10;13.40;99.90
52565;DHT22;38460;53.106;7.004;2023-09-19T04:34:36;13.40;99.90
52565;DHT22;38460;53.106;7.004;2023-09-19T04:37:03;13.40;99.90
52565;DHT22;38460;53.106;7.004;2023-09-19T04:39:29;13.40;99.90
52565;DHT22;38460;53.106;7.004;2023-09-19T04:41:55;13.40;99.90
52565;DHT22;38460;53.106;7.004;2023-09-19T04:44:21;13.40;99.90
52565;DHT22;38460;53.106;7.004;2023-09-19T04:46:47;13.40;99.90
52565;DHT22;38460;53.106;7.004;2023-09-19T04:49:13;13.40;99.90
52565;DHT22;38460;53.106;7.004;2023-09-19T04:51:39;13.40;99.90
52565;DHT22;38460;53.106;7.004;2023-09-19T04:54:05;13.40;99.90
52565;DHT22;38460;53.106;7.004;2023-09-19T04:56:32;13.40;99.90
52565;DHT22;38460;53.106;7.004;2023-09-19T04:58:59;13.40;99.90
52565;DHT22;38460;53.106;7.004;2023-09-19T05:01:25;13.40;99.90
52565;DHT22;38460;53.106;7.004;2023-09-19T05:03:51;13.50;99.90
52565;DHT22;38460;53.106;7.004;2023-09-19T05:06:22;13.50;99.90
52565;DHT22;38460;53.106;7.004;2023-09-19T05:08:50;13.40;99.90
52565;DHT22;38460;53.106;7.004;2023-09-19T05:11:20;13.40;99.90
52565;DHT22;38460;53.106;7.004;2023-09-19T05:13:48;13.40;99.90
52565;DHT22;38460;53.106;7.004;2023-09-19T05:16:16;13.40;99.90
52565;DHT22;38460;53.106;7.004;2023-09-19T05:18:42;13.40;99.90
52565;DHT22;38460;53.106;7.004;2023-09-19T05:21:07;13.40;99.90
52565;DHT22;38460;53.106;7.004;2023-09-19T05:23:33;13.40;99.90
52565;DHT22;38460;53.106;7.004;2023-09-19T05:25:59;13.40;99.90
52565;DHT22;38460;53.106;7.004;2023-09-19T05:28:26;13.40;99.90
52565;DHT22;38460;53.106;7.004;2023-09-19T05:30:53;13.40;99.90
52565;DHT22;38460;53.106;7.004;2023-09-19T05:33:19;13.40;99.90
52565;DHT22;38460;53.106;7.004;2023-09-19T05:35:45;13.40;99.90
52565;DHT22;38460;53.106;7.004;2023-09-19T05:38:13;13.40;99.90
52565;DHT22;38460;53.106;7.004;2023-09-19T05:40:40;13.40;99.90
52565;DHT22;38460;53.106;7.004;2023-09-19T05:43:08;13.40;99.90
52565;DHT22;38460;53.106;7.004;2023-09-19T05:45:34;13.40;99.90
52565;DHT22;38460;53.106;7.004;2023-09-19T05:48:12;13.40;99.90
52565;DHT22;38460;53.106;7.004;2023-09-19T05:50:39;13.50;99.90
52565;DHT22;38460;53.106;7.004;2023-09-19T05:53:05;13.50;99.90
52565;DHT22;38460;53.106;7.004;2023-09-19T05:55:32;13.50;99.90
52565;DHT22;38460;53.106;7.004;2023-09-19T05:57:58;13.50;99.90
52565;DHT22;38460;53.106;7.004;2023-09-19T06:00:25;13.50;99.90
52565;DHT22;38460;53.106;7.004;2023-09-19T06:02:57;13.10;99.90
52565;DHT22;38460;53.106;7.004;2023-09-19T06:05:24;13.50;99.90
52565;DHT22;38460;53.106;7.004;2023-09-19T06:07:52;13.50;99.90
52565;DHT22;38460;53.106;7.004;2023-09-19T06:10:18;13.50;99.90
52565;DHT22;38460;53.106;7.004;2023-09-19T06:12:46;13.50;99.90
52565;DHT22;38460;53.106;7.004;2023-09-19T06:15:14;13.50;99.90
52565;DHT22;38460;53.106;7.004;2023-09-19T06:17:49;13.60;99.90
52565;DHT22;38460;53.106;7.004;2023-09-19T06:20:16;13.60;99.90
52565;DHT22;38460;53.106;7.004;2023-09-19T06:22:42;13.60;99.90
52565;DHT22;38460;53.106;7.004;2023-09-19T06:25:13;13.60;99.90
52565;DHT22;38460;53.106;7.004;2023-09-19T06:27:45;13.60;99.90
52565;DHT22;38460;53.106;7.004;2023-09-19T06:30:11;13.60;99.90
52565;DHT22;38460;53.106;7.004;2023-09-19T06:32:37;13.60;99.90
52565;DHT22;38460;53.106;7.004;2023-09-19T06:35:03;13.60;99.90
52565;DHT22;38460;53.106;7.004;2023-09-19T06:37:30;13.60;99.90
52565;DHT22;38460;53.106;7.004;2023-09-19T06:39:56;13.60;99.90
52565;DHT22;38460;53.106;7.004;2023-09-19T06:42:22;13.70;99.90
52565;DHT22;38460;53.106;7.004;2023-09-19T06:44:49;13.70;99.90
52565;DHT22;38460;53.106;7.004;2023-09-19T06:47:14;13.70;99.90
52565;DHT22;38460;53.106;7.004;2023-09-19T06:49:41;13.70;99.90
52565;DHT22;38460;53.106;7.004;2023-09-19T06:52:10;13.70;99.90
52565;DHT22;38460;53.106;7.004;2023-09-19T06:54:35;13.70;99.90
52565;DHT22;38460;53.106;7.004;2023-09-19T06:57:01;13.70;99.90
52565;DHT22;38460;53.106;7.004;2023-09-19T06:59:27;13.70;99.90
52565;DHT22;38460;53.106;7.004;2023-09-19T07:01:53;13.80;99.90
52565;DHT22;38460;53.106;7.004;2023-09-19T07:04:18;13.70;99.90
52565;DHT22;38460;53.106;7.004;2023-09-19T07:06:50;13.80;99.90
52565;DHT22;38460;53.106;7.004;2023-09-19T07:09:17;13.80;99.90
52565;DHT22;38460;53.106;7.004;2023-09-19T07:11:43;13.80;99.90
52565;DHT22;38460;53.106;7.004;2023-09-19T07:14:08;13.90;99.90
52565;DHT22;38460;53.106;7.004;2023-09-19T07:16:38;13.90;99.90
52565;DHT22;38460;53.106;7.004;2023-09-19T07:19:05;14.00;99.90
52565;DHT22;38460;53.106;7.004;2023-09-19T07:21:31;14.00;99.90
52565;DHT22;38460;53.106;7.004;2023-09-19T07:23:59;14.10;99.90
52565;DHT22;38460;53.106;7.004;2023-09-19T07:26:26;14.10;99.90
52565;DHT22;38460;53.106;7.004;2023-09-19T07:28:54;14.10;99.90
52565;DHT22;38460;53.106;7.004;2023-09-19T07:31:20;14.20;99.90
52565;DHT22;38460;53.106;7.004;2023-09-19T07:33:48;14.20;99.90
52565;DHT22;38460;53.106;7.004;2023-09-19T07:36:14;14.30;99.90
52565;DHT22;38460;53.106;7.004;2023-09-19T07:38:40;14.30;99.90
52565;DHT22;38460;53.106;7.004;2023-09-19T07:41:08;14.30;99.90
52565;DHT22;38460;53.106;7.004;2023-09-19T07:43:35;14.30;99.90
52565;DHT22;38460;53.106;7.004;2023-09-19T07:46:05;14.40;99.90
52565;DHT22;38460;53.106;7.004;2023-09-19T07:48:33;14.40;99.90
52565;DHT22;38460;53.106;7.004;2023-09-19T07:51:04;14.40;99.90
52565;DHT22;38460;53.106;7.004;2023-09-19T07:53:30;14.40;99.90
52565;DHT22;38460;53.106;7.004;2023-09-19T07:56:06;14.40;99.90
52565;DHT22;38460;53.106;7.004;2023-09-19T07:58:32;14.50;99.90
52565;DHT22;38460;53.106;7.004;2023-09-19T08:01:09;14.50;99.90
52565;DHT22;38460;53.106;7.004;2023-09-19T08:03:39;14.50;99.90
52565;DHT22;38460;53.106;7.004;2023-09-19T08:06:09;14.50;99.90
52565;DHT22;38460;53.106;7.004;2023-09-19T08:08:35;14.60;99.90
52565;DHT22;38460;53.106;7.004;2023-09-19T08:11:05;14.60;99.90
52565;DHT22;38460;53.106;7.004;2023-09-19T08:13:47;14.60;99.90
52565;DHT22;38460;53.106;7.004;2023-09-19T08:16:15;14.60;99.90
52565;DHT22;38460;53.106;7.004;2023-09-19T08:18:41;14.60;99.90
52565;DHT22;38460;53.106;7.004;2023-09-19T08:21:08;14.70;99.90
52565;DHT22;38460;53.106;7.004;2023-09-19T08:23:39;14.60;99.90
52565;DHT22;38460;53.106;7.004;2023-09-19T08:26:05;14.60;99.90
52565;DHT22;38460;53.106;7.004;2023-09-19T08:28:35;14.60;99.90
52565;DHT22;38460;53.106;7.004;2023-09-19T08:31:05;14.60;99.90
52565;DHT22;38460;53.106;7.004;2023-09-19T08:33:35;14.70;99.90
52565;DHT22;38460;53.106;7.004;2023-09-19T08:36:04;14.70;99.90
52565;DHT22;38460;53.106;7.004;2023-09-19T08:38:34;14.70;99.90
52565;DHT22;38460;53.106;7.004;2023-09-19T08:41:04;14.70;99.90
52565;DHT22;38460;53.106;7.004;2023-09-19T08:43:30;14.80;99.90
52565;DHT22;38460;53.106;7.004;2023-09-19T08:48:32;14.80;99.90
52565;DHT22;38460;53.106;7.004;2023-09-19T08:51:10;14.90;99.90
52565;DHT22;38460;53.106;7.004;2023-09-19T08:54:08;15.00;99.90
52565;DHT22;38460;53.106;7.004;2023-09-19T08:56:36;15.00;99.90
52565;DHT22;38460;53.106;7.004;2023-09-19T08:59:06;15.10;99.90
52565;DHT22;38460;53.106;7.004;2023-09-19T09:01:35;15.10;99.90
52565;DHT22;38460;53.106;7.004;2023-09-19T09:04:01;15.20;99.90
52565;DHT22;38460;53.106;7.004;2023-09-19T09:06:29;15.30;99.90
52565;DHT22;38460;53.106;7.004;2023-09-19T09:08:55;15.30;99.90
52565;DHT22;38460;53.106;7.004;2023-09-19T09:11:22;15.40;99.90
52565;DHT22;38460;53.106;7.004;2023-09-19T09:13:50;15.50;99.90
52565;DHT22;38460;53.106;7.004;2023-09-19T09:16:16;15.50;99.90
52565;DHT22;38460;53.106;7.004;2023-09-19T09:18:47;15.50;99.90
52565;DHT22;38460;53.106;7.004;2023-09-19T09:21:26;15.60;99.90
52565;DHT22;38460;53.106;7.004;2023-09-19T09:23:52;15.60;99.90
52565;DHT22;38460;53.106;7.004;2023-09-19T09:26:45;15.70;99.90
52565;DHT22;38460;53.106;7.004;2023-09-19T09:29:12;15.70;99.90
52565;DHT22;38460;53.106;7.004;2023-09-19T09:31:38;15.80;99.90
52565;DHT22;38460;53.106;7.004;2023-09-19T09:34:08;15.80;99.90
52565;DHT22;38460;53.106;7.004;2023-09-19T09:36:35;15.90;99.90
52565;DHT22;38460;53.106;7.004;2023-09-19T09:39:02;16.00;99.90
52565;DHT22;38460;53.106;7.004;2023-09-19T09:41:42;16.00;99.90
52565;DHT22;38460;53.106;7.004;2023-09-19T09:44:18;16.10;99.90
52565;DHT22;38460;53.106;7.004;2023-09-19T09:46:48;16.10;99.90
52565;DHT22;38460;53.106;7.004;2023-09-19T09:49:23;16.20;99.90
52565;DHT22;38460;53.106;7.004;2023-09-19T09:52:02;16.30;99.90
52565;DHT22;38460;53.106;7.004;2023-09-19T09:54:59;16.40;99.90
52565;DHT22;38460;53.106;7.004;2023-09-19T09:57:33;16.40;99.90
52565;DHT22;38460;53.106;7.004;2023-09-19T10:00:00;16.50;99.90
52565;DHT22;38460;53.106;7.004;2023-09-19T10:02:38;16.50;99.90
52565;DHT22;38460;53.106;7.004;2023-09-19T10:05:17;16.60;99.90
52565;DHT22;38460;53.106;7.004;2023-09-19T10:07:51;16.60;99.90
52565;DHT22;38460;53.106;7.004;2023-09-19T10:10:40;16.70;99.90
52565;DHT22;38460;53.106;7.004;2023-09-19T10:13:07;16.80;99.90
52565;DHT22;38460;53.106;7.004;2023-09-19T10:15:39;16.90;99.90
52565;DHT22;38460;53.106;7.004;2023-09-19T10:18:20;16.90;99.90
52565;DHT22;38460;53.106;7.004;2023-09-19T10:20:46;16.90;99.90
52565;DHT22;38460;53.106;7.004;2023-09-19T10:23:15;17.00;99.90
52565;DHT22;38460;53.106;7.004;2023-09-19T10:25:49;17.10;99.90
52565;DHT22;38460;53.106;7.004;2023-09-19T10:28:17;17.10;99.90
52565;DHT22;38460;53.106;7.004;2023-09-19T10:30:49;17.10;99.90
52565;DHT22;38460;53.106;7.004;2023-09-19T10:33:19;17.20;99.90
52565;DHT22;38460;53.106;7.004;2023-09-19T10:35:49;17.30;99.90
52565;DHT22;38460;53.106;7.004;2023-09-19T10:38:23;17.30;99.90
52565;DHT22;38460;53.106;7.004;2023-09-19T10:40:50;17.40;99.90
52565;DHT22;38460;53.106;7.004;2023-09-19T10:43:18;17.40;99.90
52565;DHT22;38460;53.106;7.004;2023-09-19T10:45:49;17.40;99.90
52565;DHT22;38460;53.106;7.004;2023-09-19T10:48:18;17.50;99.90
52565;DHT22;38460;53.106;7.004;2023-09-19T10:51:05;17.50;99.90
52565;DHT22;38460;53.106;7.004;2023-09-19T10:54:01;17.60;99.90
52565;DHT22;38460;53.106;7.004;2023-09-19T10:56:35;17.70;99.90
52565;DHT22;38460;53.106;7.004;2023-09-19T10:59:15;17.80;99.90
52565;DHT22;38460;53.106;7.004;2023-09-19T11:01:43;17.90;99.90
52565;DHT22;38460;53.106;7.004;2023-09-19T11:04:23;18.00;99.90
52565;DHT22;38460;53.106;7.004;2023-09-19T11:09:47;18.10;99.90
52565;DHT22;38460;53.106;7.004;2023-09-19T11:15:07;18.10;99.90
52565;DHT22;38460;53.106;7.004;2023-09-19T11:17:41;18.10;99.90
52565;DHT22;38460;53.106;7.004;2023-09-19T11:30:32;18.50;99.90
52565;DHT22;38460;53.106;7.004;2023-09-19T11:36:13;18.50;99.90
52565;DHT22;38460;53.106;7.004;2023-09-19T11:43:48;18.60;99.90
52565;DHT22;38460;53.106;7.004;2023-09-19T11:46:16;18.60;99.90
52565;DHT22;38460;53.106;7.004;2023-09-19T11:48:48;18.70;99.90
52565;DHT22;38460;53.106;7.004;2023-09-19T11:51:19;18.80;99.90
52565;DHT22;38460;53.106;7.004;2023-09-19T11:53:51;18.90;99.90
52565;DHT22;38460;53.106;7.004;2023-09-19T11:56:18;18.90;99.90
52565;DHT22;38460;53.106;7.004;2023-09-19T11:58:46;18.90;99.90
52565;DHT22;38460;53.106;7.004;2023-09-19T12:01:19;18.80;99.90
52565;DHT22;38460;53.106;7.004;2023-09-19T12:03:47;18.80;99.90
52565;DHT22;38460;53.106;7.004;2023-09-19T12:06:16;18.70;99.90
52565;DHT22;38460;53.106;7.004;2023-09-19T12:08:43;18.70;99.90
52565;DHT22;38460;53.106;7.004;2023-09-19T12:11:16;18.60;99.90
52565;DHT22;38460;53.106;7.004;2023-09-19T12:13:44;18.60;99.90
52565;DHT22;38460;53.106;7.004;2023-09-19T12:18:40;18.60;99.90
52565;DHT22;38460;53.106;7.004;2023-09-19T12:21:10;18.60;99.90
52565;DHT22;38460;53.106;7.004;2023-09-19T12:24:21;18.60;99.90
52565;DHT22;38460;53.106;7.004;2023-09-19T12:26:47;18.60;99.90
52565;DHT22;38460;53.106;7.004;2023-09-19T12:29:18;18.60;99.90
52565;DHT22;38460;53.106;7.004;2023-09-19T12:34:27;18.60;99.90
52565;DHT22;38460;53.106;7.004;2023-09-19T12:39:40;18.50;99.90
52565;DHT22;38460;53.106;7.004;2023-09-19T12:42:11;18.50;99.90
52565;DHT22;38460;53.106;7.004;2023-09-19T12:44:44;18.50;99.90
52565;DHT22;38460;53.106;7.004;2023-09-19T12:47:11;18.40;99.90
52565;DHT22;38460;53.106;7.004;2023-09-19T12:50:13;18.40;99.90
52565;DHT22;38460;53.106;7.004;2023-09-19T12:52:41;18.30;99.90
52565;DHT22;38460;53.106;7.004;2023-09-19T12:55:07;18.20;99.90
52565;DHT22;38460;53.106;7.004;2023-09-19T12:57:35;18.20;99.90
52565;DHT22;38460;53.106;7.004;2023-09-19T13:00:05;18.20;99.90
52565;DHT22;38460;53.106;7.004;2023-09-19T13:02:37;18.20;99.90
52565;DHT22;38460;53.106;7.004;2023-09-19T13:05:03;18.30;99.90
52565;DHT22;38460;53.106;7.004;2023-09-19T13:07:45;18.30;99.90
52565;DHT22;38460;53.106;7.004;2023-09-19T13:10:15;18.40;99.90
52565;DHT22;38460;53.106;7.004;2023-09-19T13:12:43;18.40;99.90
52565;DHT22;38460;53.106;7.004;2023-09-19T13:15:13;18.40;99.90
52565;DHT22;38460;53.106;7.004;2023-09-19T13:17:48;18.40;99.90
52565;DHT22;38460;53.106;7.004;2023-09-19T13:20:24;18.30;99.90
52565;DHT22;38460;53.106;7.004;2023-09-19T13:22:53;18.30;99.90
52565;DHT22;38460;53.106;7.004;2023-09-19T13:25:21;18.20;99.90
52565;DHT22;38460;53.106;7.004;2023-09-19T13:27:48;18.20;99.90
52565;DHT22;38460;53.106;7.004;2023-09-19T13:30:17;18.20;99.90
52565;DHT22;38460;53.106;7.004;2023-09-19T13:32:43;18.20;99.90
52565;DHT22;38460;53.106;7.004;2023-09-19T13:35:09;18.10;99.90
52565;DHT22;38460;53.106;7.004;2023-09-19T13:37:38;18.10;99.90
52565;DHT22;38460;53.106;7.004;2023-09-19T13:40:08;18.10;99.90
52565;DHT22;38460;53.106;7.004;2023-09-19T13:42:34;18.10;99.90
52565;DHT22;38460;53.106;7.004;2023-09-19T13:45:02;18.10;99.90
52565;DHT22;38460;53.106;7.004;2023-09-19T13:47:33;18.10;99.90
52565;DHT22;38460;53.106;7.004;2023-09-19T13:49:59;18.10;99.90
52565;DHT22;38460;53.106;7.004;2023-09-19T13:52:26;18.00;99.90
52565;DHT22;38460;53.106;7.004;2023-09-19T13:54:54;18.00;99.90
52565;DHT22;38460;53.106;7.004;2023-09-19T13:57:22;18.00;99.90
52565;DHT22;38460;53.106;7.004;2023-09-19T13:59:48;17.90;99.90
52565;DHT22;38460;53.106;7.004;2023-09-19T14:02:14;18.00;99.90
52565;DHT22;38460;53.106;7.004;2023-09-19T14:04:40;17.90;99.90
52565;DHT22;38460;53.106;7.004;2023-09-19T14:07:06;17.90;99.90
52565;DHT22;38460;53.106;7.004;2023-09-19T14:09:33;17.90;99.90
52565;DHT22;38460;53.106;7.004;2023-09-19T14:11:59;17.90;99.90
52565;DHT22;38460;53.106;7.004;2023-09-19T14:14:25;17.90;99.90
52565;DHT22;38460;53.106;7.004;2023-09-19T14:16:51;17.90;99.90
52565;DHT22;38460;53.106;7.004;2023-09-19T14:19:20;17.90;99.90
52565;DHT22;38460;53.106;7.004;2023-09-19T14:21:46;17.90;99.90
52565;DHT22;38460;53.106;7.004;2023-09-19T14:24:19;17.90;99.90
52565;DHT22;38460;53.106;7.004;2023-09-19T14:26:45;17.90;99.90
52565;DHT22;38460;53.106;7.004;2023-09-19T14:29:11;17.90;99.90
52565;DHT22;38460;53.106;7.004;2023-09-19T14:31:38;17.90;99.90
52565;DHT22;38460;53.106;7.004;2023-09-19T14:34:05;18.00;99.90
52565;DHT22;38460;53.106;7.004;2023-09-19T14:36:31;18.00;99.90
52565;DHT22;38460;53.106;7.004;2023-09-19T14:38:58;18.10;99.90
52565;DHT22;38460;53.106;7.004;2023-09-19T14:41:24;18.10;99.90
52565;DHT22;38460;53.106;7.004;2023-09-19T14:43:52;18.10;99.90
52565;DHT22;38460;53.106;7.004;2023-09-19T14:46:18;18.10;99.90
52565;DHT22;38460;53.106;7.004;2023-09-19T14:48:45;18.10;99.90
52565;DHT22;38460;53.106;7.004;2023-09-19T14:51:14;18.10;99.90
52565;DHT22;38460;53.106;7.004;2023-09-19T14:53:40;18.20;99.90
52565;DHT22;38460;53.106;7.004;2023-09-19T14:56:09;18.20;99.90
52565;DHT22;38460;53.106;7.004;2023-09-19T14:58:36;18.20;99.90
52565;DHT22;38460;53.106;7.004;2023-09-19T15:01:09;18.20;99.90
52565;DHT22;38460;53.106;7.004;2023-09-19T15:03:39;18.20;99.90
52565;DHT22;38460;53.106;7.004;2023-09-19T15:06:07;18.20;99.90
52565;DHT22;38460;53.106;7.004;2023-09-19T15:08:45;18.20;99.90
52565;DHT22;38460;53.106;7.004;2023-09-19T15:11:13;18.20;99.90
52565;DHT22;38460;53.106;7.004;2023-09-19T15:13:43;18.10;99.90
52565;DHT22;38460;53.106;7.004;2023-09-19T15:16:09;18.10;99.90
52565;DHT22;38460;53.106;7.004;2023-09-19T15:18:40;18.10;99.90
52565;DHT22;38460;53.106;7.004;2023-09-19T15:21:08;18.10;99.90
52565;DHT22;38460;53.106;7.004;2023-09-19T15:23:35;18.10;99.90
52565;DHT22;38460;53.106;7.004;2023-09-19T15:26:09;18.10;99.90
52565;DHT22;38460;53.106;7.004;2023-09-19T15:28:35;18.10;99.90
52565;DHT22;38460;53.106;7.004;2023-09-19T15:31:03;18.10;99.90
52565;DHT22;38460;53.106;7.004;2023-09-19T15:33:30;18.10;99.90
52565;DHT22;38460;53.106;7.004;2023-09-19T15:36:10;18.10;99.90
52565;DHT22;38460;53.106;7.004;2023-09-19T15:41:25;18.10;99.90
52565;DHT22;38460;53.106;7.004;2023-09-19T15:43:53;18.10;99.90
52565;DHT22;38460;53.106;7.004;2023-09-19T15:46:20;18.00;99.90
52565;DHT22;38460;53.106;7.004;2023-09-19T15:48:45;17.90;99.90
52565;DHT22;38460;53.106;7.004;2023-09-19T15:51:12;17.90;99.90
52565;DHT22;38460;53.106;7.004;2023-09-19T15:53:44;17.80;99.90
52565;DHT22;38460;53.106;7.004;2023-09-19T15:56:14;17.80;99.90
52565;DHT22;38460;53.106;7.004;2023-09-19T15:58:47;17.80;99.90
52565;DHT22;38460;53.106;7.004;2023-09-19T16:01:14;17.80;99.90
52565;DHT22;38460;53.106;7.004;2023-09-19T16:03:47;17.80;99.90
52565;DHT22;38460;53.106;7.004;2023-09-19T16:06:15;17.80;99.90
52565;DHT22;38460;53.106;7.004;2023-09-19T16:08:42;17.70;99.90
52565;DHT22;38460;53.106;7.004;2023-09-19T16:11:09;17.80;99.90
52565;DHT22;38460;53.106;7.004;2023-09-19T16:13:36;17.80;99.90
52565;DHT22;38460;53.106;7.004;2023-09-19T16:16:02;17.80;99.90
52565;DHT22;38460;53.106;7.004;2023-09-19T16:18:29;17.80;99.90
52565;DHT22;38460;53.106;7.004;2023-09-19T16:21:04;17.80;99.90
52565;DHT22;38460;53.106;7.004;2023-09-19T16:23:30;17.70;99.90
52565;DHT22;38460;53.106;7.004;2023-09-19T16:26:07;17.80;99.90
52565;DHT22;38460;53.106;7.004;2023-09-19T16:28:35;17.80;99.90
52565;DHT22;38460;53.106;7.004;2023-09-19T16:31:06;17.70;99.90
52565;DHT22;38460;53.106;7.004;2023-09-19T16:33:34;17.80;99.90
52565;DHT22;38460;53.106;7.004;2023-09-19T16:36:00;17.80;99.90